KAMG/AMG METAR and TAF weather

Enter ICAO airport designator
Station Type Date Time Source
KAMG METAR 2019/10/18 05:53 UTC NOAA

KAMG 180553Z AUTO 00000KT 10SM CLR 12/09 A2994 RMK AO2 SLP137 T01220094 10161 20117 50002


Station Type Date Time Source
KAMG Decoded METAR 2019/10/18 05:53 UTC NOAA

ALMA BACON COUNTY AIRPORT, GA, United States (KAMG) 31-32N 82-30W 59M
Oct 18, 2019 - 01:53 AM EDT / 2019.10.18 0553 UTC
Wind: Calm:0
Visibility: 10 mile(s):0
Sky conditions: clear
Temperature: 54.0 F (12.2 C)
Dew Point: 48.9 F (9.4 C)
Relative Humidity: 82%
Pressure (altimeter): 29.94 in. Hg (1013 hPa)
Pressure tendency: 0.01 inches (0.2 hPa) higher than three hours ago
ob: KAMG 180553Z AUTO 00000KT 10SM CLR 12/09 A2994 RMK AO2 SLP137 T01220094 10161 20117 50002
cycle: 6

Station Type Date Time Source
KAMG TAF UTC NOAA

Error!

Example: see airport list